createdAt,value
2023-03-11T00:02:30.844Z,1.50
2023-03-11T00:05:04.126Z,1.77
2023-03-11T00:07:40.062Z,2.35
2023-03-11T00:10:17.773Z,1.65
2023-03-11T00:12:52.038Z,2.30
2023-03-11T00:15:25.204Z,2.17
2023-03-11T00:17:58.830Z,1.92
2023-03-11T00:20:35.906Z,1.90
2023-03-11T00:23:11.815Z,2.53
2023-03-11T00:25:47.282Z,2.10
2023-03-11T00:28:22.094Z,2.47
2023-03-11T00:30:55.106Z,2.53
2023-03-11T00:33:28.059Z,2.20
2023-03-11T00:36:01.150Z,2.10
2023-03-11T00:38:34.185Z,2.38
2023-03-11T00:41:08.492Z,2.38
2023-03-11T00:43:44.848Z,1.90
2023-03-11T00:46:18.074Z,1.70
2023-03-11T00:48:52.152Z,2.13
2023-03-11T00:51:25.073Z,1.85
2023-03-11T00:54:00.815Z,1.77
2023-03-11T00:56:36.952Z,1.92
2023-03-11T00:59:10.938Z,2.30
2023-03-11T01:01:44.137Z,2.20
2023-03-11T01:04:17.034Z,1.85
2023-03-11T01:06:51.635Z,1.88
2023-03-11T01:09:24.603Z,2.03
2023-03-11T01:12:00.875Z,1.95
2023-03-11T01:14:34.428Z,1.58
2023-03-11T01:17:07.728Z,1.77
2023-03-11T01:19:44.215Z,1.35
2023-03-11T01:22:17.430Z,1.80
2023-03-11T01:24:50.319Z,2.20
2023-03-11T01:27:25.387Z,1.67
2023-03-11T01:29:58.513Z,1.73
2023-03-11T01:32:31.367Z,2.47
2023-03-11T01:36:03.091Z,1.30
2023-03-11T01:38:36.049Z,1.88
2023-03-11T01:41:11.183Z,2.28
2023-03-11T01:43:55.387Z,2.03
2023-03-11T01:46:36.959Z,1.90
2023-03-11T01:49:13.509Z,1.92
2023-03-11T01:51:51.019Z,1.52
2023-03-11T01:54:27.979Z,1.50
2023-03-11T01:57:06.148Z,1.45
2023-03-11T01:59:47.994Z,1.90
2023-03-11T02:02:24.164Z,1.25
2023-03-11T02:04:58.300Z,1.42
2023-03-11T02:07:34.994Z,1.65
2023-03-11T02:10:13.157Z,2.05
2023-03-11T02:12:50.092Z,1.63
2023-03-11T02:15:31.708Z,1.60
2023-03-11T02:18:14.570Z,2.10
2023-03-11T02:21:01.168Z,1.63
2023-03-11T02:23:47.879Z,1.50
2023-03-11T02:26:29.193Z,1.58
2023-03-11T02:29:11.627Z,1.52
2023-03-11T02:31:47.504Z,1.55
2023-03-11T02:34:27.786Z,1.50
2023-03-11T02:37:05.478Z,1.33
2023-03-11T02:39:42.076Z,1.70
2023-03-11T02:42:23.970Z,1.63
2023-03-11T02:45:02.808Z,1.52
2023-03-11T02:47:39.118Z,2.70
2023-03-11T02:50:17.411Z,1.33
2023-03-11T02:52:55.680Z,1.58
2023-03-11T02:55:28.914Z,1.50
2023-03-11T02:58:06.336Z,2.00
2023-03-11T03:00:45.495Z,1.40
2023-03-11T03:03:18.996Z,1.65
2023-03-11T03:05:52.912Z,1.90
2023-03-11T03:08:29.134Z,1.48
2023-03-11T03:11:03.238Z,1.80
2023-03-11T03:13:36.280Z,1.60
2023-03-11T03:16:11.266Z,1.38
2023-03-11T03:21:17.972Z,2.05
2023-03-11T03:23:54.249Z,1.93
2023-03-11T03:26:28.857Z,1.45
2023-03-11T03:31:36.641Z,1.50
2023-03-11T03:34:10.267Z,1.98
2023-03-11T03:36:43.297Z,1.58
2023-03-11T03:39:18.660Z,1.60
2023-03-11T03:41:52.666Z,1.95
2023-03-11T03:44:27.869Z,1.85
2023-03-11T03:47:02.143Z,1.63
2023-03-11T03:49:35.494Z,1.50
2023-03-11T03:52:08.976Z,1.80
2023-03-11T03:54:42.927Z,1.65
2023-03-11T03:57:15.799Z,2.10
2023-03-11T03:59:51.819Z,1.83
2023-03-11T04:02:26.339Z,1.40
2023-03-11T04:05:01.903Z,1.88
2023-03-11T04:07:35.113Z,2.38
2023-03-11T04:10:10.145Z,2.03
2023-03-11T04:12:43.859Z,2.38
2023-03-11T04:15:17.063Z,1.48
2023-03-11T04:17:51.800Z,1.65
2023-03-11T04:20:24.958Z,1.85
2023-03-11T04:23:02.120Z,1.52
2023-03-11T04:25:35.280Z,1.75
2023-03-11T04:28:08.550Z,2.20
2023-03-11T04:30:41.922Z,1.90
2023-03-11T04:33:16.590Z,2.25
2023-03-11T04:35:49.451Z,1.35
2023-03-11T04:41:01.371Z,1.80
2023-03-11T04:43:35.107Z,1.40
2023-03-11T04:46:08.265Z,1.73
2023-03-11T04:48:42.969Z,1.85
2023-03-11T04:51:16.095Z,2.15
2023-03-11T04:53:49.228Z,1.70
2023-03-11T04:56:22.127Z,1.33
2023-03-11T04:58:56.077Z,1.80
2023-03-11T05:01:31.298Z,1.52
2023-03-11T05:04:09.137Z,1.50
2023-03-11T05:06:42.348Z,1.50
2023-03-11T05:09:15.310Z,1.50
2023-03-11T05:11:48.395Z,1.88
2023-03-11T05:14:24.379Z,1.80
2023-03-11T05:16:59.003Z,2.15
2023-03-11T05:19:34.763Z,1.90
2023-03-11T05:22:14.101Z,1.80
2023-03-11T05:24:47.977Z,1.70
2023-03-11T05:27:21.193Z,2.47
2023-03-11T05:29:58.490Z,2.20
2023-03-11T05:32:33.404Z,1.70
2023-03-11T05:35:08.782Z,1.63
2023-03-11T05:37:41.652Z,1.83
2023-03-11T05:40:14.841Z,1.60
2023-03-11T05:42:48.544Z,1.90
2023-03-11T05:45:21.869Z,2.22
2023-03-11T05:47:57.033Z,1.77
2023-03-11T05:50:31.929Z,2.58
2023-03-11T05:53:05.863Z,1.50
2023-03-11T05:55:38.686Z,1.40
2023-03-11T05:58:11.813Z,2.08
2023-03-11T06:00:44.628Z,1.58
2023-03-11T06:03:17.572Z,1.95
2023-03-11T06:05:53.732Z,1.52
2023-03-11T06:08:28.045Z,1.75
2023-03-11T06:11:03.016Z,2.13
2023-03-11T06:13:36.308Z,2.03
2023-03-11T06:16:10.328Z,1.58
2023-03-11T06:18:43.379Z,1.92
2023-03-11T06:21:21.153Z,2.00
2023-03-11T06:23:54.316Z,2.00
2023-03-11T06:26:27.351Z,1.98
2023-03-11T06:29:00.282Z,2.28
2023-03-11T06:31:34.476Z,1.70
2023-03-11T06:34:13.701Z,1.50
2023-03-11T06:36:47.904Z,1.75
2023-03-11T06:39:20.751Z,1.67
2023-03-11T06:41:55.689Z,1.92
2023-03-11T06:44:28.518Z,1.98
2023-03-11T06:47:03.578Z,1.85
2023-03-11T06:49:40.760Z,2.58
2023-03-11T06:52:14.928Z,1.88
2023-03-11T06:54:48.153Z,2.28
2023-03-11T06:57:22.928Z,2.22
2023-03-11T06:59:58.234Z,1.85
2023-03-11T07:02:31.537Z,2.00
2023-03-11T07:05:05.548Z,2.45
2023-03-11T07:07:39.841Z,2.05
2023-03-11T07:10:13.235Z,1.90
2023-03-11T07:12:46.090Z,2.00
2023-03-11T07:15:19.082Z,2.35
2023-03-11T07:17:52.049Z,1.88
2023-03-11T07:20:24.959Z,2.30
2023-03-11T07:22:59.176Z,2.55
2023-03-11T07:25:32.038Z,1.92
2023-03-11T07:28:07.913Z,2.10
2023-03-11T07:30:41.338Z,2.70
2023-03-11T07:33:14.249Z,2.35
2023-03-11T07:35:49.208Z,2.15
2023-03-11T07:40:59.513Z,1.92
2023-03-11T07:43:32.885Z,2.15
2023-03-11T07:46:07.859Z,1.88
2023-03-11T07:48:41.759Z,2.08
2023-03-11T07:51:17.090Z,3.05
2023-03-11T07:53:53.533Z,1.83
2023-03-11T07:56:28.343Z,1.58
2023-03-11T07:59:02.276Z,1.90
2023-03-11T08:01:38.362Z,1.85
2023-03-11T08:04:14.385Z,1.73
2023-03-11T08:06:48.999Z,2.35
2023-03-11T08:09:23.157Z,1.52
2023-03-11T08:11:55.963Z,1.58
2023-03-11T08:14:28.799Z,1.88
2023-03-11T08:17:01.605Z,1.05
2023-03-11T08:19:34.448Z,1.42
2023-03-11T08:22:07.247Z,1.15
2023-03-11T08:24:42.521Z,1.30
2023-03-11T08:27:15.298Z,2.13
2023-03-11T08:29:48.212Z,2.20
2023-03-11T08:32:21.043Z,1.50
2023-03-11T08:34:53.885Z,1.63
2023-03-11T08:37:26.854Z,1.45
2023-03-11T08:40:00.975Z,1.70
2023-03-11T08:42:34.887Z,1.37
2023-03-11T08:45:10.320Z,1.73
2023-03-11T08:47:43.151Z,1.23
2023-03-11T08:50:18.437Z,1.10
2023-03-11T08:52:51.189Z,1.27
2023-03-11T08:55:27.695Z,1.10
2023-03-11T08:58:00.606Z,1.25
2023-03-11T09:00:33.688Z,1.20
2023-03-11T09:03:06.649Z,1.60
2023-03-11T09:05:39.559Z,1.50
2023-03-11T09:08:12.536Z,1.90
2023-03-11T09:10:46.725Z,1.17
2023-03-11T09:13:19.590Z,1.50
2023-03-11T09:15:52.753Z,1.73
2023-03-11T09:18:25.823Z,1.10
2023-03-11T09:20:59.117Z,1.23
2023-03-11T09:23:32.001Z,1.02
2023-03-11T09:26:06.461Z,1.10
2023-03-11T09:28:39.738Z,1.10
2023-03-11T09:31:12.655Z,0.98
2023-03-11T09:33:46.471Z,0.80
2023-03-11T09:36:21.787Z,1.00
2023-03-11T09:38:54.644Z,1.30
2023-03-11T09:41:42.382Z,1.17
2023-03-11T09:44:32.765Z,0.93
2023-03-11T09:47:29.976Z,1.08
2023-03-11T09:50:31.967Z,1.00
2023-03-11T09:53:20.114Z,1.02
2023-03-11T09:55:54.706Z,0.90
2023-03-11T09:58:38.550Z,1.05
2023-03-11T10:01:18.367Z,1.40
2023-03-11T10:03:54.447Z,1.38
2023-03-11T10:06:30.590Z,1.10
2023-03-11T10:09:14.901Z,1.00
2023-03-11T10:12:03.531Z,1.00
2023-03-11T10:14:49.617Z,1.38
2023-03-11T10:18:01.394Z,1.20
2023-03-11T10:20:46.718Z,1.10
2023-03-11T10:23:26.041Z,1.75
2023-03-11T10:26:13.021Z,1.80
2023-03-11T10:28:50.662Z,1.60
2023-03-11T10:31:28.568Z,1.10
2023-03-11T10:34:04.054Z,0.70
2023-03-11T10:36:43.097Z,1.17
2023-03-11T10:39:16.282Z,0.93
2023-03-11T10:41:55.122Z,1.10
2023-03-11T10:44:33.547Z,0.93
2023-03-11T10:47:13.502Z,0.80
2023-03-11T10:49:46.559Z,1.02
2023-03-11T10:52:19.758Z,0.88
2023-03-11T10:55:00.984Z,0.90
2023-03-11T10:57:35.862Z,0.90
2023-03-11T11:00:12.472Z,1.30
2023-03-11T11:02:53.188Z,0.90
2023-03-11T11:05:32.585Z,0.90
2023-03-11T11:08:09.145Z,1.00
2023-03-11T11:10:51.205Z,0.80
2023-03-11T11:13:25.838Z,0.80
2023-03-11T11:16:00.888Z,0.90
2023-03-11T11:18:38.174Z,0.77
2023-03-11T11:21:16.666Z,0.75
2023-03-11T11:23:53.851Z,0.90
2023-03-11T11:26:27.454Z,0.80
2023-03-11T11:29:13.289Z,0.60
2023-03-11T11:31:48.349Z,0.80
2023-03-11T11:34:29.903Z,0.90
2023-03-11T11:37:05.395Z,0.85
2023-03-11T11:39:51.452Z,1.20
2023-03-11T11:42:27.035Z,3.53
2023-03-11T11:45:07.647Z,1.00
2023-03-11T11:47:45.233Z,0.80
2023-03-11T11:50:27.951Z,0.65
2023-03-11T11:53:10.680Z,0.55
2023-03-11T11:55:49.204Z,0.68
2023-03-11T11:58:22.818Z,0.60
2023-03-11T12:01:09.255Z,0.82
2023-03-11T12:04:26.941Z,0.70
2023-03-11T12:07:19.211Z,0.70
2023-03-11T12:10:12.814Z,0.70
2023-03-11T12:13:00.104Z,1.08
2023-03-11T12:15:40.103Z,0.60
2023-03-11T12:18:18.592Z,0.60
2023-03-11T12:20:56.402Z,0.80
2023-03-11T12:23:43.787Z,0.65
2023-03-11T12:26:19.655Z,0.43
2023-03-11T12:28:56.509Z,0.70
2023-03-11T12:31:37.320Z,0.77
2023-03-11T12:34:13.962Z,1.10
2023-03-11T12:36:49.052Z,0.70
2023-03-11T12:39:25.720Z,1.40
2023-03-11T12:42:18.828Z,1.20
2023-03-11T12:44:53.752Z,1.25
2023-03-11T12:47:28.827Z,1.77
2023-03-11T12:50:35.258Z,0.82
2023-03-11T12:53:18.257Z,0.85
2023-03-11T12:56:05.198Z,0.77
2023-03-11T12:58:54.239Z,1.00
2023-03-11T13:01:51.922Z,0.57
2023-03-11T13:04:38.946Z,0.82
2023-03-11T13:07:38.676Z,0.60
2023-03-11T13:10:17.543Z,0.70
2023-03-11T13:12:53.392Z,0.80
2023-03-11T13:15:31.269Z,0.80
2023-03-11T13:18:16.158Z,0.90
2023-03-11T13:20:56.148Z,0.95
2023-03-11T13:23:35.314Z,0.80
2023-03-11T13:26:20.674Z,0.98
2023-03-11T13:29:12.234Z,0.52
2023-03-11T13:31:58.196Z,0.60
2023-03-11T13:34:44.073Z,0.50
2023-03-11T13:37:30.932Z,0.85
2023-03-11T13:40:14.344Z,0.50
2023-03-11T13:42:50.094Z,0.60
2023-03-11T13:45:31.211Z,0.65
2023-03-11T13:48:08.891Z,0.40
2023-03-11T13:50:47.961Z,0.63
2023-03-11T13:53:25.696Z,0.60
2023-03-11T13:56:01.794Z,0.90
2023-03-11T13:58:35.608Z,0.75
2023-03-11T14:01:17.584Z,0.73
2023-03-11T14:03:50.636Z,0.60
2023-03-11T14:06:23.854Z,0.65
2023-03-11T14:08:58.508Z,0.50
2023-03-11T14:11:31.336Z,0.50
2023-03-11T14:14:28.949Z,0.73
2023-03-11T14:17:05.067Z,0.80
2023-03-11T14:19:38.187Z,0.60
2023-03-11T14:22:11.539Z,0.77
2023-03-11T14:24:49.499Z,0.70
2023-03-11T14:27:22.412Z,0.70
2023-03-11T14:29:55.399Z,0.70
2023-03-11T14:32:31.245Z,0.55
2023-03-11T14:35:19.904Z,0.65
2023-03-11T14:37:53.592Z,0.80
2023-03-11T14:40:30.276Z,0.70
2023-03-11T14:43:06.812Z,0.80
2023-03-11T14:45:43.715Z,0.77
2023-03-11T14:48:24.615Z,1.00
2023-03-11T14:50:59.382Z,0.47
2023-03-11T14:53:40.356Z,0.90
2023-03-11T14:56:17.606Z,1.30
2023-03-11T14:59:06.877Z,0.80
2023-03-11T15:01:41.779Z,1.30
2023-03-11T15:04:27.402Z,1.40
2023-03-11T15:07:01.273Z,1.33
2023-03-11T15:09:34.505Z,1.08
2023-03-11T15:12:29.622Z,1.30
2023-03-11T15:15:02.587Z,0.90
2023-03-11T15:17:42.752Z,0.88
2023-03-11T15:20:27.072Z,1.05
2023-03-11T15:23:02.783Z,0.75
2023-03-11T15:25:40.705Z,0.63
2023-03-11T15:28:24.249Z,0.80
2023-03-11T15:31:16.516Z,1.02
2023-03-11T15:33:51.473Z,0.57
2023-03-11T15:36:34.389Z,1.15
2023-03-11T15:39:12.388Z,0.75
2023-03-11T15:41:47.814Z,0.85
2023-03-11T15:44:29.086Z,0.60
2023-03-11T15:47:01.974Z,1.10
2023-03-11T15:49:35.108Z,0.88
2023-03-11T15:52:10.061Z,0.90
2023-03-11T15:54:47.429Z,0.80
2023-03-11T15:57:28.172Z,0.95
2023-03-11T16:00:02.954Z,0.80
2023-03-11T16:02:39.885Z,0.68
2023-03-11T16:05:20.002Z,0.80
2023-03-11T16:07:54.241Z,1.13
2023-03-11T16:10:28.642Z,0.90
2023-03-11T16:13:01.471Z,0.75
2023-03-11T16:15:36.767Z,0.90
2023-03-11T16:18:10.585Z,0.93
2023-03-11T16:20:45.722Z,0.68
2023-03-11T16:23:23.167Z,0.82
2023-03-11T16:25:59.605Z,0.80
2023-03-11T16:28:32.515Z,1.05
2023-03-11T16:31:06.108Z,0.60
2023-03-11T16:33:39.064Z,0.70
2023-03-11T16:36:12.180Z,0.65
2023-03-11T16:38:51.401Z,1.10
2023-03-11T16:41:24.190Z,0.70
2023-03-11T16:43:59.881Z,0.93
2023-03-11T16:46:33.038Z,0.90
2023-03-11T16:49:06.539Z,0.90
2023-03-11T16:51:39.440Z,0.80
2023-03-11T16:54:13.607Z,1.02
2023-03-11T16:56:46.742Z,1.13
2023-03-11T16:59:19.577Z,0.95
2023-03-11T17:01:52.474Z,0.95
2023-03-11T17:04:25.281Z,1.80
2023-03-11T17:06:58.129Z,1.17
2023-03-11T17:09:32.698Z,1.65
2023-03-11T17:14:38.578Z,1.67
2023-03-11T17:17:11.427Z,1.73
2023-03-11T17:19:44.464Z,1.85
2023-03-11T17:22:17.955Z,1.95
2023-03-11T17:24:52.819Z,2.00
2023-03-11T17:27:26.042Z,2.30
2023-03-11T17:29:58.911Z,3.00
2023-03-11T17:32:31.937Z,2.42
2023-03-11T17:35:05.493Z,2.10
2023-03-11T17:37:38.409Z,1.75
2023-03-11T17:40:13.725Z,1.73
2023-03-11T17:42:46.584Z,2.00
2023-03-11T17:45:19.510Z,1.80
2023-03-11T17:47:52.357Z,1.95
2023-03-11T17:50:26.243Z,1.98
2023-03-11T17:52:59.290Z,1.73
2023-03-11T17:55:36.322Z,1.90
2023-03-11T17:58:10.477Z,2.00
2023-03-11T18:00:43.481Z,2.55
2023-03-11T18:06:09.220Z,2.35
2023-03-11T18:08:42.182Z,2.58
2023-03-11T18:11:18.281Z,3.50
2023-03-11T18:13:51.668Z,3.33
2023-03-11T18:16:25.640Z,3.47
2023-03-11T18:18:58.538Z,4.80
2023-03-11T18:21:32.621Z,3.42
2023-03-11T18:24:05.628Z,3.70
2023-03-11T18:26:38.548Z,3.78
2023-03-11T18:29:11.205Z,3.05
2023-03-11T18:31:43.887Z,3.90
2023-03-11T18:34:16.502Z,4.57
2023-03-11T18:36:50.485Z,4.50
2023-03-11T18:39:23.050Z,4.77
2023-03-11T18:41:55.652Z,5.40
2023-03-11T18:44:28.264Z,5.10
2023-03-11T18:47:00.878Z,5.28
2023-03-11T18:49:33.540Z,4.75
2023-03-11T18:52:07.691Z,6.22
2023-03-11T18:54:40.500Z,3.83
2023-03-11T18:57:13.113Z,5.32
2023-03-11T18:59:45.723Z,5.40
2023-03-11T19:02:18.922Z,5.72
2023-03-11T19:04:51.643Z,5.90
2023-03-11T19:07:25.704Z,6.07
2023-03-11T19:09:58.337Z,5.97
2023-03-11T19:12:33.562Z,6.07
2023-03-11T19:15:06.878Z,6.75
2023-03-11T19:17:39.620Z,7.32
2023-03-11T19:20:12.872Z,8.15
2023-03-11T19:22:49.690Z,8.57
2023-03-11T19:25:27.797Z,8.68
2023-03-11T19:28:00.690Z,8.45
2023-03-11T19:30:33.635Z,9.65
2023-03-11T19:33:06.222Z,9.30
2023-03-11T19:35:38.906Z,6.70
2023-03-11T19:38:12.959Z,6.95
2023-03-11T19:40:45.713Z,5.15
2023-03-11T19:43:19.201Z,6.93
2023-03-11T19:45:51.904Z,8.15
2023-03-11T19:48:24.822Z,7.50
2023-03-11T19:50:58.356Z,8.38
2023-03-11T19:53:32.775Z,10.20
2023-03-11T19:56:06.693Z,11.90
2023-03-11T19:58:39.385Z,13.60
2023-03-11T20:01:16.195Z,14.30
2023-03-11T20:03:48.863Z,13.88
2023-03-11T20:06:22.707Z,14.10
2023-03-11T20:08:56.826Z,14.32
2023-03-11T20:11:29.486Z,13.53
2023-03-11T20:14:02.250Z,13.93
2023-03-11T20:16:35.129Z,14.68
2023-03-11T20:19:07.933Z,14.82
2023-03-11T20:21:40.544Z,14.68
2023-03-11T20:24:14.745Z,11.70
2023-03-11T20:26:49.945Z,11.93
2023-03-11T20:29:23.733Z,9.55
2023-03-11T20:31:56.565Z,10.05
2023-03-11T20:34:29.324Z,12.77
2023-03-11T20:37:02.043Z,10.50
2023-03-11T20:39:36.117Z,10.38
2023-03-11T20:42:08.832Z,11.57
2023-03-11T20:44:41.627Z,10.32
2023-03-11T20:47:14.505Z,11.85
2023-03-11T20:49:47.459Z,11.70
2023-03-11T20:52:20.377Z,12.13
2023-03-11T20:54:54.478Z,11.75
2023-03-11T20:57:27.362Z,13.18
2023-03-11T21:00:00.045Z,13.85
2023-03-11T21:02:34.654Z,12.52
2023-03-11T21:05:08.549Z,13.20
2023-03-11T21:07:41.679Z,14.05
2023-03-11T21:10:17.213Z,13.90
2023-03-11T21:12:49.998Z,13.85
2023-03-11T21:15:22.843Z,13.82
2023-03-11T21:17:55.654Z,13.27
2023-03-11T21:20:30.629Z,14.07
2023-03-11T21:25:42.451Z,12.15
2023-03-11T21:28:15.265Z,11.90
2023-03-11T21:30:48.032Z,12.80
2023-03-11T21:33:20.815Z,12.88
2023-03-11T21:35:54.052Z,11.68
2023-03-11T21:38:27.674Z,12.18
2023-03-11T21:41:07.457Z,11.02
2023-03-11T21:43:41.631Z,11.88
2023-03-11T21:46:15.871Z,12.60
2023-03-11T21:48:48.989Z,11.63
2023-03-11T21:51:22.424Z,11.80
2023-03-11T21:53:56.274Z,11.95
2023-03-11T21:56:30.424Z,11.25
2023-03-11T21:59:03.824Z,11.63
2023-03-11T22:01:37.527Z,10.20
2023-03-11T22:04:10.270Z,9.15
2023-03-11T22:06:42.984Z,9.57
2023-03-11T22:09:15.711Z,8.73
2023-03-11T22:11:49.777Z,8.18
2023-03-11T22:14:22.465Z,7.20
2023-03-11T22:16:55.343Z,5.50
2023-03-11T22:19:28.304Z,6.10
2023-03-11T22:22:00.993Z,6.22
2023-03-11T22:24:34.029Z,5.50
2023-03-11T22:27:08.088Z,4.32
2023-03-11T22:29:40.701Z,5.45
2023-03-11T22:32:13.420Z,5.38
2023-03-11T22:34:46.108Z,4.53
2023-03-11T22:37:18.685Z,3.88
2023-03-11T22:39:51.430Z,3.80
2023-03-11T22:42:25.496Z,3.67
2023-03-11T22:44:58.096Z,3.53
2023-03-11T22:47:30.855Z,3.40
2023-03-11T22:50:03.541Z,3.75
2023-03-11T22:52:36.269Z,3.60
2023-03-11T22:55:09.230Z,3.95
2023-03-11T22:57:43.244Z,4.15
2023-03-11T23:00:17.941Z,4.10
2023-03-11T23:02:53.587Z,4.18
2023-03-11T23:05:26.238Z,4.80
2023-03-11T23:07:58.931Z,4.35
2023-03-11T23:10:31.574Z,4.03
2023-03-11T23:13:05.525Z,5.32
2023-03-11T23:15:40.243Z,4.00
2023-03-11T23:18:13.372Z,4.43
2023-03-11T23:20:46.102Z,4.88
2023-03-11T23:23:18.720Z,4.05
2023-03-11T23:25:51.384Z,4.82
2023-03-11T23:28:25.358Z,4.97
2023-03-11T23:30:58.071Z,5.00
2023-03-11T23:33:30.759Z,4.72
2023-03-11T23:36:03.821Z,4.40
2023-03-11T23:38:37.015Z,4.93
2023-03-11T23:41:10.764Z,3.50
2023-03-11T23:43:44.891Z,3.88
2023-03-11T23:46:17.706Z,3.90
2023-03-11T23:48:50.370Z,3.28
2023-03-11T23:51:23.060Z,4.47
2023-03-11T23:53:55.908Z,3.50
2023-03-11T23:56:29.375Z,3.38
2023-03-11T23:59:03.469Z,3.80
